Latest Weather Observations for The Monument

IDQ60801

Issued at 7:12 pm EST Sunday 29 March 2020 (issued every 10 minutes, with the page automatically refreshed every 10 minutes)

About weather observations | Map of weather stations | Latest weather observations for QLD | Other Formats
Station Details ID: 037034 Name: THE MONUMENT AIRPORT Lat: -21.81 Lon: 139.93 Height: 288.4 m
Data from the previous 72 hours. | See also: Recent months at The Monument
Date/Time
EST
Temp
°C
App
Temp
°C
Dew
Point
°C
Rel
Hum
%
Delta-T
°C
Wind Press
QNH
hPa
Press
MSL
hPa
Rain since
9am
mm
Dir  Spd
km/h
Gust
km/h
Spd
kts
Gust
kts
29/07:00pm 31.6 30.3 9.8 26 12.5 ESE 7 9 4 5 1011.3 1009.3 0.0
29/06:30pm 33.2 31.1 9.9 24 13.5 ESE 11 15 6 8 1010.9 1008.9 0.0
29/06:00pm 34.0 31.4 10.6 24 13.8 ENE 15 20 8 11 1010.6 1008.6 0.0
29/05:30pm 34.5 32.2 10.4 23 14.2 ESE 13 17 7 9 1010.4 1008.4 0.0
29/05:00pm 34.6 33.1 10.4 23 14.2 ESE 9 13 5 7 1010.2 1008.2 0.0
29/04:30pm 36.1 33.6 11.0 22 15.0 E 15 24 8 13 1010.1 1008.1 0.0
29/04:00pm 36.0 34.0 11.6 23 14.7 ESE 13 17 7 9 1010.1 1008.1 0.0
29/03:30pm 35.4 33.3 11.1 23 14.5 E 13 20 7 11 1010.2 1008.2 0.0
29/03:00pm 35.0 33.4 11.4 24 14.1 E 11 20 6 11 1010.5 1008.5 0.0
29/02:30pm 36.3 34.2 12.5 24 14.5 ESE 15 22 8 12 1010.7 1008.7 0.0
29/02:00pm 35.7 33.3 11.4 23 14.6 SE 15 24 8 13 1011.2 1009.2 0.0
29/01:30pm 35.1 33.9 12.7 26 13.6 E 11 30 6 16 1011.7 1009.7 0.0
29/01:00pm 35.4 34.3 13.0 26 13.7 ENE 11 20 6 11 1012.4 1010.4 0.0
29/12:30pm 35.3 33.7 14.0 28 13.2 ENE 15 22 8 12 1012.9 1011.0 0.0
29/12:00pm 34.2 32.1 13.6 29 12.7 NE 17 28 9 15 1013.5 1011.5 0.0
29/11:30am 33.8 31.9 14.3 31 12.1 NNE 17 24 9 13 1013.9 1011.9 0.0
29/11:00am 32.7 30.5 14.3 32 11.4 N 19 26 10 14 1014.3 1012.3 0.0
29/10:30am 32.6 30.6 15.6 36 10.7 NNE 20 30 11 16 1014.6 1012.6 0.0
29/10:00am 31.2 28.3 15.2 38 10.0 N 24 33 13 18 1014.5 1012.5 0.0
29/09:30am 30.2 26.5 15.1 40 9.4 NNE 28 37 15 20 1014.3 1012.3 0.0
29/09:00am 29.3 26.1 14.3 40 9.2 NNE 24 37 13 20 1014.0 1012.0 0.0
29/08:30am 28.2 25.7 14.1 42 8.5 NNE 20 28 11 15 1013.7 1011.7 0.0
29/08:00am 26.6 23.9 13.0 43 8.0 NNE 19 28 10 15 1013.3 1011.3 0.0
29/07:30am 24.9 24.0 12.5 46 7.2 NNE 9 15 5 8 1012.8 1010.9 0.0
29/07:00am 23.5 21.7 12.2 49 6.5 NNE 13 17 7 9 1012.4 1010.4 0.0
29/06:30am 23.5 22.1 12.2 49 6.5 NE 11 15 6 8 1012.2 1010.2 0.0
29/06:00am 23.5 21.7 12.2 49 6.5 NE 13 17 7 9 1011.6 1009.6 0.0
29/05:30am 23.2 21.8 12.2 50 6.3 NE 11 15 6 8 1011.5 1009.5 0.0
29/05:00am 22.2 21.3 12.5 54 5.6 NNE 9 11 5 6 1011.3 1009.3 0.0
29/04:35am 22.4 21.6 11.8 51 6.0 NNE 7 9 4 5 1011.2 1009.2 0.0
29/04:30am 22.6 21.9 12.0 51 6.1 NNE 7 9 4 5 1011.1 1009.1 0.0
29/04:08am 23.5 23.0 12.2 49 6.5 N 6 7 3 4 1011.0 1009.0 0.0
29/04:00am 23.1 22.4 12.1 50 6.3 NNE 7 7 4 4 1011.0 1009.0 0.0
29/03:30am 23.7 22.9 11.7 47 6.9 NE 7 9 4 5 1011.1 1009.1 0.0
29/03:00am 23.8 23.0 11.8 47 6.9 ENE 7 7 4 4 1011.2 1009.2 0.0
29/02:35am 24.4 23.5 11.4 44 7.4 ESE 7 9 4 5 1011.4 1009.4 0.0
29/02:30am 24.6 23.9 11.5 44 7.5 ESE 6 9 3 5 1011.5 1009.5 0.0
29/02:00am 24.6 24.1 12.2 46 7.2 S 6 11 3 6 1011.7 1009.7 0.0
29/01:30am 24.2 24.1 12.2 47 6.9 NNE 4 6 2 3 1011.8 1009.8 0.0
29/01:24am 24.0 23.5 12.0 47 6.9 NNE 6 7 3 4 1011.8 1009.8 0.0
29/01:22am 24.0 23.6 12.3 48 6.8 NNE 6 7 3 4 1011.8 1009.8 0.0
29/01:03am 24.4 23.7 12.0 46 7.1 NNE 7 9 4 5 1011.8 1009.8 0.0
29/01:00am 24.6 24.0 12.2 46 7.2 NNE 7 9 4 5 1011.9 1009.9 0.0
29/12:30am 24.5 25.1 11.8 45 7.3 CALM 0 0 0 0 1012.2 1010.2 0.0
29/12:00am 25.2 24.4 11.7 43 7.8 NE 7 9 4 5 1012.4 1010.4 0.0
 
Date/Time
EST
Temp
°C
App
Temp
°C
Dew
Point
°C
Rel
Hum
%
Delta-T
°C
Wind Press
QNH
hPa
Press
MSL
hPa
Rain since
9am
mm
Dir  Spd
km/h
Gust
km/h
Spd
kts
Gust
kts
28/11:36pm 25.7 24.9 11.8 42 8.0 NNE 7 9 4 5 1012.4 1010.4 0.0
28/11:30pm 26.0 25.4 11.7 41 8.3 NNE 6 9 3 5 1012.4 1010.4 0.0
28/11:17pm 25.7 25.8 11.5 41 8.2 NE 2 7 1 4 1012.5 1010.5 0.0
28/11:00pm 26.4 25.6 11.7 40 8.5 NE 7 9 4 5 1012.5 1010.5 0.0
28/10:30pm 26.8 26.1 11.3 38 8.9 NE 6 7 3 4 1012.5 1010.5 0.0
28/10:19pm 27.2 26.5 11.3 37 9.2 NNE 6 7 3 4 1012.5 1010.5 0.0
28/10:01pm 27.5 26.8 11.5 37 9.3 NNE 6 7 3 4 1012.5 1010.5 0.0
28/10:00pm 27.5 26.7 11.1 36 9.5 NNE 6 7 3 4 1012.5 1010.5 0.0
28/09:30pm 28.1 26.3 10.8 34 9.9 NE 11 13 6 7 1012.4 1010.4 0.0
28/09:00pm 28.1 26.7 10.8 34 9.9 ENE 9 9 5 5 1012.1 1010.1 0.0
28/08:30pm 28.7 27.3 10.8 33 10.3 ENE 9 11 5 6 1011.7 1009.7 0.0
28/08:00pm 29.2 27.6 10.3 31 10.8 E 9 9 5 5 1011.3 1009.3 0.0
28/07:30pm 30.1 28.5 10.1 29 11.5 E 9 9 5 5 1011.1 1009.1 0.0
28/07:00pm 31.3 30.0 10.1 27 12.2 ENE 7 9 4 5 1010.8 1008.8 0.0
28/06:30pm 33.0 31.6 9.7 24 13.5 ENE 7 9 4 5 1010.5 1008.5 0.0
28/06:00pm 34.0 33.3 9.9 23 14.0 ESE 4 11 2 6 1010.4 1008.4 0.0
28/05:30pm 34.4 33.0 9.6 22 14.4 NNE 7 13 4 7 1010.2 1008.2 0.0
28/05:00pm 35.8 33.4 10.1 21 15.1 SE 13 19 7 10 1010.1 1008.1 0.0
28/04:30pm 36.7 34.5 10.8 21 15.4 ESE 13 24 7 13 1010.1 1008.1 0.0
28/04:00pm 36.1 35.1 11.0 22 15.0 NNE 7 17 4 9 1010.2 1008.2 0.0
28/03:30pm 35.6 33.9 9.9 21 15.1 ESE 9 17 5 9 1010.4 1008.4 0.0
28/03:00pm 35.4 33.7 9.7 21 15.0 SE 9 20 5 11 1010.8 1008.8 0.0
28/02:30pm 34.8 32.4 9.9 22 14.5 ESE 13 20 7 11 1011.1 1009.1 0.0
28/02:00pm 36.2 33.9 10.4 21 15.3 N 13 20 7 11 1011.4 1009.4 0.0
28/01:30pm 35.5 33.8 11.2 23 14.5 E 11 20 6 11 1012.0 1010.0 0.0
28/01:00pm 33.9 31.2 10.5 24 13.7 ENE 15 26 8 14 1012.6 1010.6 0.0
28/12:30pm 35.0 33.2 12.0 25 13.9 NNE 13 22 7 12 1013.1 1011.1 0.0
28/12:00pm 34.0 31.0 11.8 26 13.3 ENE 19 26 10 14 1013.6 1011.6 0.0
28/11:30am 33.4 31.5 11.9 27 12.9 ENE 13 26 7 14 1014.2 1012.2 0.0
28/11:00am 31.9 29.3 10.6 27 12.4 E 15 22 8 12 1014.6 1012.6 0.0
28/10:30am 30.8 28.4 10.2 28 11.9 E 13 20 7 11 1014.9 1012.9 0.0
28/10:00am 29.9 27.1 9.9 29 11.4 ESE 15 20 8 11 1015.0 1013.0 0.0
28/09:30am 28.7 25.6 10.4 32 10.5 ESE 17 24 9 13 1015.1 1013.1 0.0
28/09:00am 27.0 24.3 10.2 35 9.5 SE 15 20 8 11 1014.9 1012.9 0.0
28/08:30am 25.6 23.3 10.6 39 8.5 SE 13 20 7 11 1014.5 1012.5 0.0
28/08:00am 23.6 22.0 10.3 43 7.4 SSE 9 13 5 7 1014.3 1012.3 0.0
28/07:30am 21.8 21.0 10.9 50 6.1 S 6 9 3 5 1014.2 1012.2 0.0
28/07:00am 20.1 18.9 9.7 51 5.6 SSW 6 7 3 4 1014.0 1012.0 0.0
28/06:30am 20.3 18.8 9.2 49 6.0 S 7 9 4 5 1013.7 1011.7 0.0
28/06:00am 20.7 19.2 9.3 48 6.1 S 7 9 4 5 1013.5 1011.5 0.0
28/05:30am 21.1 19.3 9.4 47 6.3 SSW 9 11 5 6 1013.3 1011.3 0.0
28/05:00am 21.4 19.6 9.6 47 6.4 S 9 11 5 6 1013.3 1011.3 0.0
28/04:30am 21.4 19.9 9.3 46 6.6 S 7 9 4 5 1013.4 1011.4 0.0
28/04:00am 21.9 20.1 9.4 45 6.8 S 9 11 5 6 1013.4 1011.4 0.0
28/03:30am 22.3 20.1 9.5 44 7.0 SSW 11 13 6 7 1013.5 1011.5 0.0
28/03:00am 22.4 20.3 9.6 44 7.0 S 11 13 6 7 1013.6 1011.6 0.0
28/02:30am 22.4 20.6 9.6 44 7.0 S 9 9 5 5 1013.8 1011.8 0.0
28/02:00am 22.8 21.3 9.2 42 7.4 S 7 11 4 6 1014.1 1012.1 0.0
28/01:30am 23.2 21.3 8.9 40 7.8 SSW 9 9 5 5 1014.2 1012.2 0.0
28/01:00am 23.9 21.9 8.7 38 8.3 S 9 11 5 6 1014.3 1012.3 0.0
28/12:30am 24.7 22.7 8.6 36 8.8 S 9 13 5 7 1014.5 1012.5 0.0
28/12:00am 25.4 22.6 8.4 34 9.3 S 13 17 7 9 1014.6 1012.6 0.0
 
Date/Time
EST
Temp
°C
App
Temp
°C
Dew
Point
°C
Rel
Hum
%
Delta-T
°C
Wind Press
QNH
hPa
Press
MSL
hPa
Rain since
9am
mm
Dir  Spd
km/h
Gust
km/h
Spd
kts
Gust
kts
27/11:30pm 25.4 22.9 8.0 33 9.4 SSE 11 15 6 8 1014.7 1012.7 0.0
27/11:00pm 26.3 23.8 8.3 32 9.8 S 11 15 6 8 1014.7 1012.7 0.0
27/10:30pm 26.9 24.1 8.4 31 10.2 S 13 17 7 9 1014.8 1012.8 0.0
27/10:00pm 27.5 24.3 8.4 30 10.5 SSW 15 19 8 10 1014.7 1012.7 0.0
27/09:30pm 27.1 24.7 8.5 31 10.2 SSW 11 13 6 7 1014.6 1012.6 0.0
27/09:00pm 27.5 25.4 8.4 30 10.5 S 9 11 5 6 1014.3 1012.3 0.0
27/08:30pm 28.4 25.9 8.1 28 11.2 S 11 13 6 7 1014.0 1012.0 0.0
27/08:00pm 29.2 26.7 8.3 27 11.6 SSW 11 13 6 7 1013.6 1011.6 0.0
27/07:30pm 30.1 27.1 7.9 25 12.3 SSW 13 15 7 8 1013.2 1011.2 0.0
27/07:00pm 31.0 27.7 8.1 24 12.8 SSW 15 20 8 11 1012.8 1010.9 0.0
27/06:30pm 32.1 28.5 8.4 23 13.4 SSW 17 22 9 12 1012.7 1010.8 0.0
27/06:00pm 33.2 29.1 7.9 21 14.2 SSW 19 26 10 14 1012.5 1010.5 0.0
27/05:30pm 33.6 29.2 7.6 20 14.6 SSW 20 30 11 16 1012.3 1010.3 0.0
27/05:00pm 34.3 31.0 8.1 20 14.9 SSW 15 26 8 14 1012.2 1010.2 0.0
27/04:30pm 33.7 30.7 7.6 20 14.6 SSW 13 20 7 11 1012.3 1010.3 0.0
27/04:00pm 33.7 30.7 7.6 20 14.6 SSW 13 20 7 11 1012.3 1010.3 0.0
27/03:30pm 33.8 31.2 7.7 20 14.7 E 11 20 6 11 1012.6 1010.6 0.0
27/03:00pm 34.9 32.1 8.6 20 15.1 SE 13 24 7 13 1012.7 1010.8 0.0
27/02:30pm 34.3 30.3 8.1 20 14.8 SSE 19 32 10 17 1013.2 1011.2 0.0
27/02:00pm 35.0 32.0 9.4 21 14.8 S 15 22 8 12 1013.6 1011.6 0.0
27/01:30pm 34.2 31.2 9.4 22 14.3 S 15 22 8 12 1014.1 1012.1 0.0
27/01:00pm 33.7 31.6 9.7 23 13.9 SE 11 24 6 13 1014.6 1012.6 0.0
27/12:30pm 33.6 31.2 10.2 24 13.7 SE 13 22 7 12 1014.9 1012.9 0.0
27/12:00pm 33.2 30.9 10.5 25 13.3 SSE 13 26 7 14 1015.6 1013.6 0.0
27/11:30am 32.2 28.9 9.7 25 12.9 SSE 17 30 9 16 1016.2 1014.3 0.0
27/11:00am 31.7 28.3 9.3 25 12.8 SE 17 26 9 14 1016.5 1014.6 0.0
27/10:30am 31.0 27.3 9.3 26 12.3 SE 19 28 10 15 1016.9 1014.9 0.0
27/10:00am 29.5 26.7 10.1 30 11.1 SE 15 22 8 12 1017.1 1015.1 0.0
27/09:30am 28.0 25.3 10.2 33 10.1 SE 15 20 8 11 1017.2 1015.2 0.0
27/09:00am 26.5 23.8 10.2 36 9.2 SE 15 20 8 11 1017.2 1015.2 0.0
27/08:30am 25.2 22.9 10.6 40 8.2 SE 13 19 7 10 1017.1 1015.1 0.0
27/08:00am 22.5 21.6 10.6 47 6.6 S 6 9 3 5 1016.8 1014.8 0.0
27/07:30am 20.4 19.5 10.5 53 5.4 S 6 9 3 5 1016.5 1014.6 0.0
27/07:00am 19.8 18.1 9.7 52 5.5 SSW 9 11 5 6 1016.1 1014.2 0.0
27/06:30am 20.0 18.2 9.6 51 5.6 SSW 9 11 5 6 1015.9 1014.0 0.0
27/06:00am 20.4 18.6 9.3 49 6.0 S 9 11 5 6 1015.7 1013.7 0.0
27/05:30am 21.0 19.2 9.3 47 6.3 SSW 9 11 5 6 1015.5 1013.5 0.0
27/05:00am 21.5 19.9 8.7 44 6.9 S 7 11 4 6 1015.3 1013.3 0.0
27/04:30am 22.2 20.8 8.7 42 7.3 S 6 7 3 4 1015.2 1013.2 0.0
27/04:00am 22.7 20.6 8.4 40 7.7 S 9 15 5 8 1015.0 1013.0 0.0
27/03:30am 23.4 20.5 8.3 38 8.1 S 13 19 7 10 1015.1 1013.1 0.0
27/03:00am 24.0 20.8 8.4 37 8.4 S 15 19 8 10 1015.3 1013.3 0.0
27/02:30am 24.2 21.3 8.2 36 8.6 S 13 17 7 9 1015.7 1013.7 0.0
27/02:00am 24.6 21.7 8.1 35 8.9 SSE 13 20 7 11 1015.9 1014.0 0.0
27/01:30am 24.8 21.1 7.9 34 9.1 SSE 17 24 9 13 1016.0 1014.1 0.0
27/01:00am 25.0 21.7 8.1 34 9.1 SSE 15 19 8 10 1016.1 1014.2 0.0
27/12:30am 25.6 22.3 8.1 33 9.5 SSE 15 20 8 11 1016.2 1014.3 0.0
27/12:00am 26.0 22.8 8.5 33 9.6 S 15 20 8 11 1016.2 1014.3 0.0
 
Date/Time
EST
Temp
°C
App
Temp
°C
Dew
Point
°C
Rel
Hum
%
Delta-T
°C
Wind Press
QNH
hPa
Press
MSL
hPa
Rain since
9am
mm
Dir  Spd
km/h
Gust
km/h
Spd
kts
Gust
kts
26/11:30pm 26.5 22.9 8.5 32 9.9 S 17 24 9 13 1016.0 1014.1 0.0
26/11:00pm 27.1 23.7 9.0 32 10.0 S 17 20 9 11 1016.0 1014.1 0.0
26/10:30pm 27.8 23.9 9.6 32 10.2 S 20 28 11 15 1015.9 1014.0 0.0
26/10:00pm 27.5 25.7 10.7 35 9.6 S 11 13 6 7 1015.8 1013.9 0.0
26/09:30pm 28.0 26.2 10.7 34 9.9 SSE 11 13 6 7 1015.6 1013.6 0.0
26/09:00pm 28.5 26.7 10.7 33 10.2 SSE 11 13 6 7 1015.4 1013.4 0.0
26/08:30pm 29.1 27.0 11.2 33 10.4 SSE 13 15 7 8 1015.3 1013.3 0.0
26/08:00pm 29.6 27.9 11.2 32 10.7 SSE 11 15 6 8 1015.0 1013.0 0.0
26/07:30pm 30.2 28.6 11.7 32 10.9 SSE 11 13 6 7 1014.7 1012.7 0.0

Other formats

Comma delimited format used in spreadsheet applications
http://www.bom.gov.au/fwo/IDQ60801/IDQ60801.94336.axf

JavaScript Object Notation format (JSON) in row-major order
http://www.bom.gov.au/fwo/IDQ60801/IDQ60801.94336.json

Data quality

Most of these data are generated automatically and are frequently updated. Quality checks on data are not normally performed. It is possible for incorrect values to appear. Refer to information at About Latest Weather Observations and please check the disclaimer before using these data.